Time;durP1;ratioP1;P1;durP2;ratioP2;P2;SDS_P1;SDS_P2;PMS_P1;PMS_P2;Temp;Humidity;BMP_temperature;BMP_pressure;BME280_temperature;BME280_humidity;BME280_pressure;Samples;Min_cycle;Max_cycle;Signal;HPM_P1;HPM_P2
2021/11/24 06:42:24;;;;;;;;;5.00;4.33;;;;;;;;5217365;27;77879;-78
2021/11/24 06:44:50;;;;;;;;;4.00;4.00;;;;;;;;5200328;27;20788;-80
2021/11/24 06:47:17;;;;;;;;;5.00;5.00;;;;;;;;5200657;27;11415;-80
2021/11/24 06:49:43;;;;;;;;;5.00;2.00;;;;;;;;5201408;27;8859;-77
2021/11/24 06:52:08;;;;;;;;;4.75;4.00;;;;;;;;5181444;27;12185;-81
2021/11/24 06:54:34;;;;;;;;;5.50;2.00;;;;;;;;5201022;27;10284;-81
2021/11/24 06:56:59;;;;;;;;;5.00;4.00;;;;;;;;5200544;27;10295;-83
2021/11/24 06:59:24;;;;;;;;;2.00;2.00;;;;;;;;5200821;27;9657;-78
2021/11/24 07:01:49;;;;;;;;;2.00;1.50;;;;;;;;5200422;27;8895;-76
2021/11/24 07:04:15;;;;;;;;;6.50;3.75;;;;;;;;5181381;27;9094;-75
2021/11/24 07:06:40;;;;;;;;;6.75;6.75;;;;;;;;5200237;27;12134;-76
2021/11/24 07:09:09;;;;;;;;;7.50;5.00;;;;;;;;5200925;27;9964;-77
2021/11/24 07:11:34;;;;;;;;;10.75;10.75;;;;;;;;5199450;27;11478;-82
2021/11/24 07:14:00;;;;;;;;;3.00;3.00;;;;;;;;5181822;27;22496;-81
2021/11/24 07:16:25;;;;;;;;;8.25;7.75;;;;;;;;5200464;27;22299;-77
2021/11/24 07:18:50;;;;;;;;;7.00;7.00;;;;;;;;5199324;27;11478;-76
2021/11/24 07:21:16;;;;;;;;;7.00;6.50;;;;;;;;5200257;27;11348;-74
2021/11/24 07:23:41;;;;;;;;;;;;;;;;;;5203302;27;8787;-79
2021/11/24 07:26:06;;;;;;;;;3.20;1.80;;;;;;;;5200591;27;20690;-80
2021/11/24 07:28:31;;;;;;;;;7.00;7.00;;;;;;;;5199658;27;21758;-78
2021/11/24 07:30:57;;;;;;;;;7.50;7.50;;;;;;;;5200078;27;11772;-79
2021/11/24 07:33:22;;;;;;;;;4.25;4.00;;;;;;;;5199472;27;9447;-78
2021/11/24 07:35:47;;;;;;;;;8.25;5.75;;;;;;;;5199940;27;11316;-78
2021/11/24 07:38:13;;;;;;;;;5.00;4.25;;;;;;;;5199455;27;12422;-82
2021/11/24 07:40:39;;;;;;;;;5.25;3.75;;;;;;;;5180126;27;10994;-78
2021/11/24 07:43:05;;;;;;;;;4.25;4.00;;;;;;;;5200167;27;9515;-76
2021/11/24 07:45:30;;;;;;;;;3.00;3.00;;;;;;;;5199854;27;12633;-76
2021/11/24 07:47:56;;;;;;;;;1.00;0.00;;;;;;;;5199131;27;10259;-77
2021/11/24 07:50:21;;;;;;;;;4.50;3.00;;;;;;;;5199137;27;9596;-77
2021/11/24 07:52:46;;;;;;;;;3.00;3.00;;;;;;;;5191095;27;11846;-76
2021/11/24 07:55:11;;;;;;;;;4.00;4.00;;;;;;;;5185726;27;8792;-78
2021/11/24 07:57:37;;;;;;;;;2.75;2.75;;;;;;;;5185813;27;8971;-79
2021/11/24 08:00:03;;;;;;;;;3.00;3.00;;;;;;;;5185110;27;11307;-78
2021/11/24 08:02:28;;;;;;;;;4.25;1.25;;;;;;;;5184783;27;12626;-79
2021/11/24 08:04:54;;;;;;;;;2.50;2.50;;;;;;;;5184778;27;11393;-75
2021/11/24 08:07:19;;;;;;;;;2.00;2.00;;;;;;;;5185297;27;11529;-77
2021/11/24 08:09:44;;;;;;;;;2.75;2.75;;;;;;;;5184682;27;8764;-75
2021/11/24 08:12:10;;;;;;;;;3.00;3.00;;;;;;;;5184554;27;8803;-76
2021/11/24 08:14:35;;;;;;;;;2.75;2.75;;;;;;;;5184497;27;12442;-76
2021/11/24 08:17:00;;;;;;;;;4.50;2.00;;;;;;;;5184797;27;11298;-78
2021/11/24 08:19:26;;;;;;;;;3.00;2.75;;;;;;;;5184669;27;11291;-80
2021/11/24 08:21:51;;;;;;;;;2.50;2.00;;;;;;;;5184989;27;11655;-80
2021/11/24 08:24:16;;;;;;;;;3.50;3.50;;;;;;;;5184512;27;11568;-80
2021/11/24 08:26:42;;;;;;;;;6.25;2.00;;;;;;;;5184651;27;11306;-76
2021/11/24 08:29:08;;;;;;;;;2.00;2.00;;;;;;;;5184390;27;11524;-78
2021/11/24 08:31:39;;;;;;;;;5.00;2.50;;;;;;;;5185126;27;8837;-80
2021/11/24 08:34:05;;;;;;;;;5.00;3.00;;;;;;;;5185103;27;11523;-83
2021/11/24 08:36:31;;;;;;;;;2.50;1.75;;;;;;;;5184832;27;11444;-79
2021/11/24 08:38:57;;;;;;;;;3.00;2.00;;;;;;;;5184574;27;11834;-77
2021/11/24 08:41:22;;;;;;;;;2.00;2.00;;;;;;;;5184090;27;11434;-78
2021/11/24 08:43:47;;;;;;;;;3.00;3.00;;;;;;;;5184698;27;11470;-78
2021/11/24 08:46:13;;;;;;;;;2.75;2.00;;;;;;;;5185563;27;8788;-82
2021/11/24 08:48:38;;;;;;;;;2.75;2.75;;;;;;;;5184377;27;10442;-80
2021/11/24 08:51:04;;;;;;;;;1.50;1.00;;;;;;;;5184483;27;8876;-78
2021/11/24 08:53:29;;;;;;;;;1.00;1.00;;;;;;;;5184296;27;11524;-80
2021/11/24 08:55:55;;;;;;;;;3.50;2.00;;;;;;;;5172543;27;11478;-79
2021/11/24 08:58:20;;;;;;;;;3.50;3.00;;;;;;;;5163855;27;10448;-79
2021/11/24 09:00:46;;;;;;;;;3.00;3.00;;;;;;;;5172870;27;8834;-80
2021/11/24 09:03:12;;;;;;;;;5.00;4.00;;;;;;;;5184366;27;8772;-81
2021/11/24 09:05:37;;;;;;;;;2.00;1.00;;;;;;;;5176729;27;8813;-82
2021/11/24 09:08:03;;;;;;;;;3.50;2.00;;;;;;;;5177380;27;8879;-81
2021/11/24 09:10:30;;;;;;;;;2.75;2.00;;;;;;;;5184217;27;10319;-82
2021/11/24 09:12:56;;;;;;;;;2.00;2.00;;;;;;;;5184526;27;8902;-82
2021/11/24 09:15:21;;;;;;;;;1.00;1.00;;;;;;;;5165777;27;12221;-82
2021/11/24 09:17:46;;;;;;;;;3.00;2.00;;;;;;;;5184556;27;8800;-81
2021/11/24 09:20:12;;;;;;;;;4.50;2.25;;;;;;;;5184150;27;8811;-82
2021/11/24 09:22:39;;;;;;;;;5.00;2.50;;;;;;;;5184519;27;11837;-79
2021/11/24 09:25:10;;;;;;;;;1.25;1.25;;;;;;;;5185021;27;11749;-82
2021/11/24 09:27:46;;;;;;;;;2.00;2.00;;;;;;;;5184741;27;11935;-82
2021/11/24 09:30:12;;;;;;;;;2.00;2.00;;;;;;;;5185117;27;11412;-82
2021/11/24 09:32:37;;;;;;;;;3.75;2.50;;;;;;;;5185257;27;11422;-81
2021/11/24 09:35:03;;;;;;;;;2.00;1.00;;;;;;;;5184321;27;11317;-75
2021/11/24 09:37:28;;;;;;;;;9.00;3.00;;;;;;;;5164011;27;14651;-77
2021/11/24 09:39:54;;;;;;;;;3.00;2.25;;;;;;;;5183229;27;11414;-75
2021/11/24 09:42:20;;;;;;;;;2.25;2.00;;;;;;;;5179481;27;11290;-81
2021/11/24 09:44:48;;;;;;;;;1.75;1.75;;;;;;;;5172235;27;11562;-81
2021/11/24 09:47:14;;;;;;;;;3.00;3.00;;;;;;;;5173059;27;11668;-81
2021/11/24 09:49:41;;;;;;;;;4.50;2.00;;;;;;;;5171595;27;11549;-79
2021/11/24 09:52:07;;;;;;;;;2.00;1.00;;;;;;;;5172688;27;10375;-79
2021/11/24 09:54:32;;;;;;;;;5.00;2.25;;;;;;;;5171748;27;11515;-79
2021/11/24 09:56:57;;;;;;;;;2.75;2.00;;;;;;;;5170554;27;11733;-79
2021/11/24 09:59:23;;;;;;;;;3.00;2.25;;;;;;;;5150003;27;11563;-79
2021/11/24 10:01:48;;;;;;;;;1.75;1.75;;;;;;;;5170760;27;11481;-79
2021/11/24 10:04:14;;;;;;;;;2.25;2.00;;;;;;;;5169758;27;10793;-79
2021/11/24 10:06:39;;;;;;;;;2.25;1.00;;;;;;;;5169123;27;11307;-79
2021/11/24 10:09:05;;;;;;;;;3.50;3.00;;;;;;;;5172857;27;8833;-80
2021/11/24 10:11:31;;;;;;;;;1.25;1.00;;;;;;;;5170486;27;10371;-80
2021/11/24 10:13:56;;;;;;;;;2.00;2.00;;;;;;;;5172297;27;12230;-80
2021/11/24 10:16:22;;;;;;;;;4.50;2.50;;;;;;;;5169958;27;10315;-80
2021/11/24 10:19:06;;;;;;;;;1.50;1.50;;;;;;;;5170422;27;11558;-79
2021/11/24 10:21:32;;;;;;;;;3.00;3.00;;;;;;;;5170936;27;11485;-80
2021/11/24 10:24:00;;;;;;;;;3.00;2.00;;;;;;;;5169355;27;11489;-80
2021/11/24 10:26:33;;;;;;;;;3.00;1.50;;;;;;;;5171575;27;8776;-79
2021/11/24 10:29:00;;;;;;;;;2.50;2.25;;;;;;;;5169387;27;11540;-81
2021/11/24 10:31:30;;;;;;;;;1.75;1.25;;;;;;;;5171338;27;12574;-81
2021/11/24 10:33:56;;;;;;;;;4.50;3.00;;;;;;;;5172138;27;11925;-79
2021/11/24 10:36:22;;;;;;;;;2.00;2.00;;;;;;;;5170060;27;11451;-79
2021/11/24 10:38:49;;;;;;;;;3.00;3.00;;;;;;;;5170700;27;10606;-80
2021/11/24 10:41:28;;;;;;;;;2.00;2.00;;;;;;;;5167186;27;8883;-81
2021/11/24 10:43:54;;;;;;;;;2.00;2.00;;;;;;;;5166897;27;11583;-79
2021/11/24 10:46:23;;;;;;;;;1.00;1.00;;;;;;;;5172189;27;11466;-79
2021/11/24 10:48:58;;;;;;;;;3.00;1.50;;;;;;;;5171340;27;8803;-78
2021/11/24 10:51:30;;;;;;;;;2.50;2.25;;;;;;;;5171146;27;11689;-79
2021/11/24 10:54:13;;;;;;;;;1.75;1.00;;;;;;;;5170018;27;11562;-78
2021/11/24 10:57:02;;;;;;;;;3.00;3.00;;;;;;;;5169693;27;11373;-80
2021/11/24 10:59:28;;;;;;;;;3.00;2.00;;;;;;;;5171471;27;11900;-79
2021/11/24 11:02:13;;;;;;;;;4.00;3.75;;;;;;;;5169926;27;11125;-79
2021/11/24 11:04:57;;;;;;;;;3.00;3.00;;;;;;;;5169680;27;13380;-80
2021/11/24 11:07:23;;;;;;;;;3.50;3.00;;;;;;;;5170803;27;11914;-81
2021/11/24 11:09:48;;;;;;;;;6.00;3.00;;;;;;;;5168009;27;10144;-84
2021/11/24 11:12:15;;;;;;;;;3.00;3.00;;;;;;;;5142332;27;9643;-81
2021/11/24 11:14:40;;;;;;;;;4.25;3.00;;;;;;;;5165626;27;8754;-82
2021/11/24 11:17:06;;;;;;;;;5.00;3.00;;;;;;;;5162894;27;10405;-81
2021/11/24 11:19:49;;;;;;;;;4.75;3.75;;;;;;;;5162011;27;9077;-80
2021/11/24 11:22:16;;;;;;;;;4.75;3.25;;;;;;;;5161382;27;12791;-84
2021/11/24 11:24:41;;;;;;;;;3.50;3.50;;;;;;;;5161675;27;9400;-82
2021/11/24 11:27:07;;;;;;;;;3.50;3.00;;;;;;;;5161183;27;12440;-76
2021/11/24 11:29:32;;;;;;;;;3.25;3.00;;;;;;;;5164653;27;8832;-75
2021/11/24 11:31:58;;;;;;;;;2.00;2.00;;;;;;;;5144967;27;8799;-79
2021/11/24 11:34:24;;;;;;;;;4.00;2.00;;;;;;;;5163777;27;10514;-78
2021/11/24 11:36:49;;;;;;;;;3.25;3.25;;;;;;;;5164086;27;8786;-78
2021/11/24 11:39:14;;;;;;;;;3.00;2.00;;;;;;;;5164590;27;11755;-78
2021/11/24 11:41:42;;;;;;;;;2.00;2.00;;;;;;;;5164134;27;10417;-78
2021/11/24 11:44:11;;;;;;;;;3.00;2.00;;;;;;;;5163795;27;8895;-77
2021/11/24 11:46:44;;;;;;;;;2.00;2.00;;;;;;;;5163966;27;11039;-78
2021/11/24 11:49:17;;;;;;;;;2.50;2.50;;;;;;;;5164097;27;10394;-78
2021/11/24 11:51:43;;;;;;;;;2.75;2.00;;;;;;;;5163542;27;10566;-78
2021/11/24 11:54:10;;;;;;;;;2.00;2.00;;;;;;;;5163722;27;10717;-78
2021/11/24 11:56:36;;;;;;;;;3.50;2.25;;;;;;;;5164005;27;10660;-76
2021/11/24 11:59:01;;;;;;;;;3.00;2.75;;;;;;;;5163883;27;12497;-75
2021/11/24 12:01:31;;;;;;;;;3.25;2.50;;;;;;;;5163912;27;8972;-76
2021/11/24 12:04:01;;;;;;;;;2.00;2.00;;;;;;;;5164158;27;8878;-75
2021/11/24 12:06:38;;;;;;;;;3.00;2.00;;;;;;;;5163409;27;11410;-77
2021/11/24 12:09:06;;;;;;;;;2.25;2.25;;;;;;;;5144497;27;11671;-77
2021/11/24 12:11:50;;;;;;;;;2.00;2.00;;;;;;;;5163665;27;11371;-77
2021/11/24 12:14:34;;;;;;;;;3.25;3.00;;;;;;;;5163794;27;11876;-77
2021/11/24 12:16:59;;;;;;;;;3.50;3.25;;;;;;;;5163537;27;11170;-77
2021/11/24 12:19:33;;;;;;;;;2.50;1.00;;;;;;;;5164214;27;11253;-76
2021/11/24 12:21:59;;;;;;;;;4.00;4.00;;;;;;;;5144308;27;13079;-76
2021/11/24 12:24:40;;;;;;;;;2.75;2.25;;;;;;;;5164206;27;11391;-77
2021/11/24 12:27:06;;;;;;;;;5.50;2.00;;;;;;;;5163937;27;11385;-76
2021/11/24 12:29:48;;;;;;;;;4.00;4.00;;;;;;;;5163614;27;11502;-76
2021/11/24 12:32:15;;;;;;;;;3.00;2.00;;;;;;;;5163379;27;10369;-77
2021/11/24 12:34:53;;;;;;;;;1.00;1.00;;;;;;;;5162930;27;11396;-77
2021/11/24 12:37:18;;;;;;;;;3.00;3.00;;;;;;;;5161713;27;11456;-74
2021/11/24 12:39:43;;;;;;;;;2.50;2.00;;;;;;;;5162751;27;11461;-76
2021/11/24 12:42:08;;;;;;;;;2.75;2.75;;;;;;;;5162246;27;10403;-75
2021/11/24 12:44:34;;;;;;;;;3.00;3.00;;;;;;;;5162436;27;8958;-76
2021/11/24 12:47:00;;;;;;;;;2.00;1.25;;;;;;;;5144480;27;13350;-74
2021/11/24 12:49:27;;;;;;;;;3.00;3.00;;;;;;;;5163030;27;11971;-77
2021/11/24 12:51:53;;;;;;;;;2.00;2.00;;;;;;;;5163183;27;12497;-78
2021/11/24 12:54:20;;;;;;;;;1.00;1.00;;;;;;;;5162055;27;11390;-78
2021/11/24 12:56:46;;;;;;;;;2.00;2.00;;;;;;;;5163132;27;11383;-77
2021/11/24 12:59:16;;;;;;;;;2.00;2.00;;;;;;;;5144053;27;11520;-79
2021/11/24 13:01:43;;;;;;;;;1.00;1.00;;;;;;;;5163398;27;8802;-78
2021/11/24 13:04:10;;;;;;;;;4.00;3.00;;;;;;;;5162696;27;11454;-76
2021/11/24 13:06:38;;;;;;;;;2.00;2.00;;;;;;;;5163325;27;11364;-76
2021/11/24 13:09:07;;;;;;;;;1.75;1.75;;;;;;;;5162713;27;11337;-76
2021/11/24 13:11:33;;;;;;;;;2.50;2.50;;;;;;;;5162372;27;11745;-74
2021/11/24 13:13:59;;;;;;;;;2.50;2.25;;;;;;;;5162274;27;11380;-74
2021/11/24 13:16:25;;;;;;;;;3.00;1.75;;;;;;;;5163353;27;8766;-75
2021/11/24 13:18:51;;;;;;;;;3.00;3.00;;;;;;;;5162695;27;11434;-76
2021/11/24 13:21:17;;;;;;;;;3.25;1.75;;;;;;;;5162450;27;10049;-76
2021/11/24 13:23:42;;;;;;;;;3.00;2.00;;;;;;;;5142892;27;11402;-74
2021/11/24 13:26:08;;;;;;;;;2.50;2.50;;;;;;;;5161839;27;11036;-75
2021/11/24 13:28:34;;;;;;;;;2.00;2.00;;;;;;;;5161905;27;12693;-78
2021/11/24 13:30:59;;;;;;;;;4.50;4.50;;;;;;;;5143989;27;10581;-75
2021/11/24 13:33:26;;;;;;;;;2.75;2.00;;;;;;;;5162233;27;11676;-75
2021/11/24 13:36:11;;;;;;;;;4.25;3.00;;;;;;;;5173113;27;11786;-77
2021/11/24 13:41:11;;;;;;;;;6.75;3.00;;;;;;;;5855085;22;11345;-75
2021/11/24 13:43:36;;;;;;;;;5.75;2.00;;;;;;;;5096688;28;11480;-75
2021/11/24 13:46:12;;;;;;;;;0.25;0.00;;;;;;;;5100462;28;8815;-75
2021/11/24 13:48:37;;;;;;;;;6.00;2.00;;;;;;;;5100271;28;9532;-75
2021/11/24 13:51:05;;;;;;;;;2.00;2.00;;;;;;;;5099770;28;11335;-73
2021/11/24 13:53:32;;;;;;;;;2.50;2.50;;;;;;;;5099866;28;8769;-75
2021/11/24 13:56:07;;;;;;;;;2.75;2.75;;;;;;;;5100354;28;11303;-75
2021/11/24 13:58:32;;;;;;;;;4.75;3.25;;;;;;;;5100163;28;11342;-74
2021/11/24 14:01:14;;;;;;;;;2.25;2.25;;;;;;;;5100448;28;12104;-75
2021/11/24 14:03:46;;;;;;;;;2.75;2.00;;;;;;;;5099689;28;10046;-74
2021/11/24 14:06:29;;;;;;;;;4.25;3.50;;;;;;;;5099519;28;11376;-79
2021/11/24 14:08:55;;;;;;;;;5.25;2.50;;;;;;;;5099893;28;11448;-77
2021/11/24 14:11:27;;;;;;;;;2.00;2.00;;;;;;;;5080327;28;11461;-79
2021/11/24 14:14:07;;;;;;;;;5.50;3.50;;;;;;;;5100124;28;11761;-77
2021/11/24 14:16:32;;;;;;;;;2.00;2.00;;;;;;;;5100251;28;11488;-77
2021/11/24 14:19:14;;;;;;;;;3.00;3.00;;;;;;;;5100626;28;12078;-77
2021/11/24 14:21:53;;;;;;;;;2.00;2.00;;;;;;;;5095035;28;9072;-78
2021/11/24 14:24:19;;;;;;;;;2.50;1.00;;;;;;;;5075909;28;11375;-77
2021/11/24 14:26:44;;;;;;;;;2.00;2.00;;;;;;;;5090658;28;11315;-77
2021/11/24 14:29:10;;;;;;;;;2.50;2.00;;;;;;;;5080733;28;11553;-77
2021/11/24 14:31:35;;;;;;;;;2.25;2.25;;;;;;;;5075741;28;8804;-76
2021/11/24 14:34:01;;;;;;;;;3.00;3.00;;;;;;;;5099277;28;8768;-76
2021/11/24 14:36:29;;;;;;;;;3.50;2.25;;;;;;;;5099407;28;11561;-78
2021/11/24 14:38:54;;;;;;;;;2.25;2.25;;;;;;;;5093462;28;11470;-77
2021/11/24 14:41:20;;;;;;;;;2.25;2.25;;;;;;;;5098478;28;11373;-76
2021/11/24 14:43:45;;;;;;;;;3.50;2.50;;;;;;;;5081803;28;8788;-77
2021/11/24 14:46:10;;;;;;;;;3.00;2.00;;;;;;;;5067755;28;11313;-77
2021/11/24 14:48:36;;;;;;;;;2.50;2.50;;;;;;;;5068330;28;8901;-77
2021/11/24 14:51:01;;;;;;;;;1.50;1.25;;;;;;;;5069004;28;11425;-79
2021/11/24 14:53:26;;;;;;;;;3.50;1.50;;;;;;;;5048545;28;13784;-79
2021/11/24 14:55:52;;;;;;;;;6.50;3.50;;;;;;;;5067253;28;11307;-78
2021/11/24 14:58:19;;;;;;;;;2.00;2.00;;;;;;;;5067973;28;8845;-76
2021/11/24 15:00:44;;;;;;;;;2.75;2.75;;;;;;;;5069145;28;11447;-77
2021/11/24 15:03:10;;;;;;;;;2.00;2.00;;;;;;;;5068817;28;11436;-77
2021/11/24 15:05:35;;;;;;;;;2.50;2.50;;;;;;;;5071133;28;8794;-77
2021/11/24 15:08:00;;;;;;;;;2.75;2.75;;;;;;;;5071775;28;8793;-77
2021/11/24 15:10:26;;;;;;;;;3.00;1.50;;;;;;;;5070379;28;9624;-77
2021/11/24 15:12:51;;;;;;;;;5.25;2.00;;;;;;;;5072591;28;11430;-76
2021/11/24 15:15:17;;;;;;;;;5.00;2.25;;;;;;;;5071467;28;11428;-77
2021/11/24 15:17:43;;;;;;;;;2.00;2.00;;;;;;;;5070398;28;8779;-78
2021/11/24 15:20:09;;;;;;;;;2.00;2.00;;;;;;;;5072949;28;11301;-79
2021/11/24 15:22:34;;;;;;;;;3.50;2.00;;;;;;;;5080669;28;12175;-77
2021/11/24 15:25:00;;;;;;;;;2.75;1.75;;;;;;;;5102746;28;8943;-80
2021/11/24 15:27:25;;;;;;;;;1.75;1.75;;;;;;;;5100807;28;11473;-81
2021/11/24 15:29:51;;;;;;;;;3.00;2.50;;;;;;;;5073278;28;9494;-80
2021/11/24 15:32:17;;;;;;;;;5.00;2.25;;;;;;;;5098856;28;11429;-80
2021/11/24 15:34:42;;;;;;;;;2.50;2.50;;;;;;;;5102368;28;11465;-81
2021/11/24 15:37:07;;;;;;;;;3.00;3.00;;;;;;;;5102118;28;12680;-80
2021/11/24 15:39:33;;;;;;;;;3.00;3.00;;;;;;;;5101919;28;12408;-74
2021/11/24 15:42:00;;;;;;;;;4.00;4.00;;;;;;;;5101869;28;8796;-73
2021/11/24 15:44:25;;;;;;;;;3.50;3.00;;;;;;;;5101760;28;8978;-78
2021/11/24 15:46:50;;;;;;;;;3.00;2.50;;;;;;;;5101990;28;11390;-81
2021/11/24 15:49:16;;;;;;;;;5.00;3.00;;;;;;;;5101826;28;10244;-78
2021/11/24 15:51:41;;;;;;;;;5.00;5.00;;;;;;;;5101876;28;11362;-80
2021/11/24 15:54:07;;;;;;;;;5.00;3.00;;;;;;;;5103219;28;8788;-82
2021/11/24 15:56:32;;;;;;;;;6.00;3.00;;;;;;;;5102928;28;8807;-82
2021/11/24 15:58:58;;;;;;;;;2.25;2.25;;;;;;;;5101432;28;8796;-78
2021/11/24 16:01:24;;;;;;;;;3.00;3.00;;;;;;;;5099796;28;11418;-75
2021/11/24 16:03:50;;;;;;;;;5.00;5.00;;;;;;;;5101850;28;11387;-75
2021/11/24 16:06:15;;;;;;;;;5.50;5.50;;;;;;;;5101990;28;11381;-83
2021/11/24 16:08:41;;;;;;;;;2.50;2.50;;;;;;;;5101738;28;8802;-81
2021/11/24 16:11:08;;;;;;;;;5.00;5.00;;;;;;;;5101740;28;8927;-78
2021/11/24 16:13:34;;;;;;;;;4.50;2.50;;;;;;;;5083641;28;13685;-77
2021/11/24 16:15:59;;;;;;;;;8.25;2.75;;;;;;;;5101938;28;12640;-78
2021/11/24 16:18:24;;;;;;;;;4.00;4.00;;;;;;;;5102286;28;11748;-77
2021/11/24 16:20:50;;;;;;;;;5.00;5.00;;;;;;;;5101447;28;11528;-77
2021/11/24 16:23:15;;;;;;;;;5.50;5.00;;;;;;;;5102122;28;9983;-77
2021/11/24 16:25:40;;;;;;;;;6.00;5.00;;;;;;;;5102254;28;8821;-78
2021/11/24 16:28:06;;;;;;;;;6.00;5.25;;;;;;;;5101420;28;9124;-76
2021/11/24 16:30:31;;;;;;;;;2.00;2.00;;;;;;;;5101011;28;8795;-77
2021/11/24 16:32:56;;;;;;;;;3.00;2.00;;;;;;;;5101121;28;11552;-76
2021/11/24 16:35:22;;;;;;;;;5.75;5.75;;;;;;;;5101282;28;8788;-76
2021/11/24 16:37:47;;;;;;;;;3.50;2.75;;;;;;;;5101396;28;11709;-78
2021/11/24 16:40:13;;;;;;;;;5.75;5.75;;;;;;;;5101949;28;10742;-76
2021/11/24 16:42:38;;;;;;;;;7.75;5.25;;;;;;;;5101396;28;10295;-77
2021/11/24 16:45:04;;;;;;;;;5.25;4.50;;;;;;;;5101769;28;11537;-76
2021/11/24 16:47:30;;;;;;;;;6.75;4.50;;;;;;;;5083113;28;12057;-76
2021/11/24 16:49:55;;;;;;;;;7.00;6.00;;;;;;;;5101267;28;11376;-78
2021/11/24 16:52:22;;;;;;;;;8.50;7.00;;;;;;;;5101121;28;11322;-78
2021/11/24 16:54:47;;;;;;;;;12.00;10.50;;;;;;;;5100958;28;10352;-78
2021/11/24 16:57:12;;;;;;;;;6.25;6.25;;;;;;;;5101112;28;22572;-78
2021/11/24 16:59:37;;;;;;;;;8.25;7.00;;;;;;;;5101426;28;22397;-76
2021/11/24 17:02:03;;;;;;;;;6.75;5.50;;;;;;;;5101778;28;12661;-78
2021/11/24 17:04:29;;;;;;;;;3.50;3.50;;;;;;;;5101487;28;11365;-75
2021/11/24 17:06:54;;;;;;;;;8.00;7.25;;;;;;;;5082993;28;11554;-73
2021/11/24 17:09:19;;;;;;;;;6.00;6.00;;;;;;;;5101285;28;11378;-77
2021/11/24 17:11:45;;;;;;;;;10.00;6.00;;;;;;;;5100791;28;11457;-76
2021/11/24 17:14:10;;;;;;;;;5.75;5.25;;;;;;;;5100804;28;16582;-79
2021/11/24 17:16:36;;;;;;;;;6.25;6.25;;;;;;;;5100725;28;22589;-80
2021/11/24 17:19:01;;;;;;;;;8.00;8.00;;;;;;;;5100706;28;9513;-77
2021/11/24 17:21:27;;;;;;;;;6.50;6.50;;;;;;;;5100723;28;11303;-76
2021/11/24 17:23:52;;;;;;;;;6.25;6.00;;;;;;;;5100437;28;11370;-77
2021/11/24 17:26:18;;;;;;;;;7.00;5.75;;;;;;;;5100796;28;8892;-78
2021/11/24 17:28:43;;;;;;;;;5.75;5.00;;;;;;;;5101194;28;11310;-77
2021/11/24 17:31:09;;;;;;;;;7.50;7.50;;;;;;;;5100416;28;11540;-79
2021/11/24 17:33:34;;;;;;;;;6.00;6.00;;;;;;;;5100506;28;11500;-77
2021/11/24 17:36:00;;;;;;;;;11.50;10.00;;;;;;;;5100900;28;11828;-76
2021/11/24 17:38:26;;;;;;;;;9.00;9.00;;;;;;;;5099334;28;22960;-75
2021/11/24 17:40:52;;;;;;;;;10.50;9.50;;;;;;;;5099661;28;23309;-75
2021/11/24 17:43:19;;;;;;;;;9.00;7.00;;;;;;;;5100836;28;21464;-79
2021/11/24 17:45:45;;;;;;;;;7.00;6.00;;;;;;;;5100011;28;21507;-82
2021/11/24 17:48:10;;;;;;;;;13.25;10.25;;;;;;;;5100456;28;11474;-75
2021/11/24 17:50:35;;;;;;;;;10.25;10.25;;;;;;;;5099716;28;22396;-71
2021/11/24 17:53:01;;;;;;;;;12.50;9.00;;;;;;;;5100501;28;8784;-73
2021/11/24 17:55:27;;;;;;;;;16.00;14.50;;;;;;;;5093532;28;21475;-77
2021/11/24 17:57:52;;;;;;;;;9.50;9.50;;;;;;;;5078714;28;21408;-77
2021/11/24 18:00:19;;;;;;;;;18.00;17.50;;;;;;;;5079183;28;23387;-78
2021/11/24 18:02:44;;;;;;;;;21.00;20.00;;;;;;;;5078772;28;22696;-75
2021/11/24 18:05:09;;;;;;;;;21.50;18.00;;;;;;;;5078793;28;13591;-76
2021/11/24 18:07:35;;;;;;;;;25.00;20.50;;;;;;;;5079497;28;11547;-73
2021/11/24 18:10:00;;;;;;;;;25.25;21.25;;;;;;;;5078782;28;12478;-73
2021/11/24 18:12:25;;;;;;;;;26.50;21.00;;;;;;;;5079427;28;11718;-74
2021/11/24 18:14:51;;;;;;;;;23.25;19.25;;;;;;;;5079303;28;11376;-75
2021/11/24 18:17:16;;;;;;;;;27.25;21.75;;;;;;;;5060750;28;12558;-74
2021/11/24 18:19:41;;;;;;;;;22.25;17.25;;;;;;;;5060922;28;11669;-74
2021/11/24 18:22:07;;;;;;;;;24.25;20.00;;;;;;;;5079153;28;11376;-75
2021/11/24 18:24:32;;;;;;;;;15.25;14.00;;;;;;;;5078838;28;12732;-75
2021/11/24 18:26:58;;;;;;;;;25.00;20.00;;;;;;;;5079062;28;10647;-74
2021/11/24 18:29:24;;;;;;;;;22.00;20.25;;;;;;;;5060908;28;14496;-74
2021/11/24 18:31:49;;;;;;;;;19.25;15.75;;;;;;;;5060613;28;14402;-75
2021/11/24 18:34:15;;;;;;;;;18.50;15.00;;;;;;;;5060509;28;15142;-74
2021/11/24 18:36:40;;;;;;;;;19.00;19.00;;;;;;;;5077810;28;11583;-74
2021/11/24 18:39:09;;;;;;;;;22.25;19.00;;;;;;;;5078617;28;10334;-73
2021/11/24 18:41:34;;;;;;;;;22.50;17.75;;;;;;;;5078672;28;10632;-73
2021/11/24 18:44:01;;;;;;;;;20.75;18.75;;;;;;;;5077387;28;11450;-74
2021/11/24 18:46:27;;;;;;;;;21.75;15.25;;;;;;;;5060620;28;12757;-76
2021/11/24 18:48:52;;;;;;;;;17.50;17.00;;;;;;;;5079298;28;11442;-77
2021/11/24 18:51:23;;;;;;;;;18.00;15.50;;;;;;;;5060743;28;15505;-79
2021/11/24 18:53:48;;;;;;;;;24.50;18.25;;;;;;;;5079316;28;11579;-77
2021/11/24 18:56:14;;;;;;;;;20.50;20.50;;;;;;;;5077980;28;13513;-78
2021/11/24 18:58:39;;;;;;;;;16.50;14.50;;;;;;;;5079258;28;12228;-76
2021/11/24 19:01:05;;;;;;;;;23.50;19.50;;;;;;;;5078195;28;12449;-77
2021/11/24 19:03:30;;;;;;;;;23.00;17.00;;;;;;;;5079162;28;10774;-78
2021/11/24 19:05:56;;;;;;;;;16.25;15.50;;;;;;;;5078449;28;11508;-75
2021/11/24 19:08:21;;;;;;;;;15.50;14.25;;;;;;;;5078655;28;13422;-78
2021/11/24 19:10:47;;;;;;;;;17.75;14.50;;;;;;;;5077742;28;11534;-75
2021/11/24 19:13:13;;;;;;;;;20.00;17.75;;;;;;;;5078234;28;11486;-75
2021/11/24 19:15:39;;;;;;;;;15.50;13.75;;;;;;;;5060859;28;15344;-74
2021/11/24 19:18:05;;;;;;;;;14.75;11.50;;;;;;;;5078042;28;12281;-75
2021/11/24 19:20:30;;;;;;;;;15.00;15.00;;;;;;;;5078822;28;11740;-76
2021/11/24 19:22:56;;;;;;;;;17.50;14.00;;;;;;;;5076903;28;11472;-76
2021/11/24 19:25:23;;;;;;;;;17.25;14.25;;;;;;;;5076410;28;10505;-76
2021/11/24 19:27:50;;;;;;;;;13.25;11.00;;;;;;;;5077438;28;9088;-75
2021/11/24 19:30:16;;;;;;;;;18.00;17.25;;;;;;;;5077110;28;12609;-77
2021/11/24 19:32:43;;;;;;;;;18.25;13.75;;;;;;;;5076420;28;11718;-77
2021/11/24 19:35:10;;;;;;;;;30.50;25.25;;;;;;;;5057924;28;12194;-75
2021/11/24 19:37:35;;;;;;;;;13.50;13.00;;;;;;;;5076745;28;13668;-76
2021/11/24 19:40:01;;;;;;;;;10.50;10.50;;;;;;;;5076153;28;13602;-75
2021/11/24 19:42:26;;;;;;;;;13.00;10.00;;;;;;;;5082907;28;11375;-85
2021/11/24 19:44:52;;;;;;;;;10.75;9.50;;;;;;;;5088097;28;11711;-81
2021/11/24 19:47:22;;;;;;;;;13.75;11.00;;;;;;;;5089288;28;21396;-80
2021/11/24 19:49:47;;;;;;;;;17.00;10.00;;;;;;;;5079310;28;21518;-77
2021/11/24 19:52:12;;;;;;;;;16.00;12.00;;;;;;;;5084852;28;11444;-76
2021/11/24 19:54:38;;;;;;;;;17.00;15.00;;;;;;;;5089386;28;8792;-76
2021/11/24 19:57:04;;;;;;;;;16.50;13.00;;;;;;;;5086756;28;8802;-76
2021/11/24 19:59:29;;;;;;;;;14.75;13.00;;;;;;;;5087360;28;10404;-77
2021/11/24 20:01:54;;;;;;;;;12.75;11.25;;;;;;;;5083478;28;8873;-77
2021/11/24 20:04:20;;;;;;;;;16.25;12.75;;;;;;;;5086531;28;11658;-78
2021/11/24 20:06:45;;;;;;;;;17.50;14.25;;;;;;;;5095042;28;10333;-76
2021/11/24 20:09:10;;;;;;;;;14.50;13.50;;;;;;;;5094076;28;10337;-76
2021/11/24 20:11:36;;;;;;;;;11.75;10.25;;;;;;;;5094891;28;11374;-77
2021/11/24 20:14:12;;;;;;;;;17.00;10.75;;;;;;;;5090425;28;11610;-78
2021/11/24 20:16:38;;;;;;;;;12.75;10.50;;;;;;;;5090525;28;10653;-75
2021/11/24 20:19:03;;;;;;;;;13.00;9.75;;;;;;;;5093087;28;12125;-74
2021/11/24 20:21:28;;;;;;;;;3.25;3.25;;;;;;;;5077497;28;21769;-74
2021/11/24 20:23:54;;;;;;;;;22.25;17.00;;;;;;;;5079348;28;21441;-78
2021/11/24 20:26:20;;;;;;;;;26.25;23.50;;;;;;;;5080158;28;22643;-75
2021/11/24 20:28:48;;;;;;;;;34.00;29.67;;;;;;;;5078879;28;12507;-84
2021/11/24 20:31:14;;;;;;;;;33.67;25.00;;;;;;;;5079340;28;13378;-76
2021/11/24 20:33:39;;;;;;;;;29.33;26.00;;;;;;;;5079166;28;11722;-75
2021/11/24 20:36:05;;;;;;;;;32.00;25.50;;;;;;;;5079132;28;13334;-75
2021/11/24 20:38:30;;;;;;;;;33.33;30.00;;;;;;;;5081209;28;13231;-77
2021/11/24 20:40:55;;;;;;;;;24.75;24.75;;;;;;;;5080662;28;12204;-73
2021/11/24 20:43:21;;;;;;;;;31.67;28.67;;;;;;;;5051937;28;13657;-72
2021/11/24 20:45:46;;;;;;;;;26.67;24.33;;;;;;;;5066435;28;13266;-73
2021/11/24 20:48:11;;;;;;;;;26.67;24.00;;;;;;;;5060401;28;14663;-72
2021/11/24 20:50:37;;;;;;;;;27.00;27.00;;;;;;;;5042732;28;8808;-72
2021/11/24 20:53:02;;;;;;;;;29.50;26.00;;;;;;;;5059692;28;10350;-71
2021/11/24 20:55:28;;;;;;;;;31.00;29.25;;;;;;;;5060317;28;10678;-72
2021/11/24 20:57:53;;;;;;;;;28.00;26.25;;;;;;;;5059973;28;13565;-72
2021/11/24 21:00:19;;;;;;;;;36.00;34.67;;;;;;;;5060029;28;11826;-70
2021/11/24 21:02:44;;;;;;;;;34.00;30.33;;;;;;;;5059329;28;13263;-72
2021/11/24 21:05:11;;;;;;;;;35.00;30.67;;;;;;;;5059725;28;11396;-70
2021/11/24 21:07:36;;;;;;;;;33.33;30.00;;;;;;;;5060201;28;11617;-72
2021/11/24 21:10:03;;;;;;;;;30.67;28.67;;;;;;;;5059925;28;12798;-70
2021/11/24 21:12:28;;;;;;;;;32.33;29.33;;;;;;;;5060459;28;13446;-73
2021/11/24 21:14:54;;;;;;;;;30.33;26.67;;;;;;;;5063970;28;11574;-72
2021/11/24 21:17:19;;;;;;;;;33.00;29.00;;;;;;;;5061131;28;11510;-74
2021/11/24 21:19:45;;;;;;;;;36.67;33.00;;;;;;;;5079722;28;11445;-72
2021/11/24 21:22:10;;;;;;;;;38.67;34.33;;;;;;;;5076048;28;11442;-74